createdAt,value
2023-05-04T00:00:51.180Z,40.05
2023-05-04T00:01:51.218Z,40.05
2023-05-04T00:02:51.214Z,40.04
2023-05-04T00:03:51.260Z,40.04
2023-05-04T00:04:51.172Z,40.00
2023-05-04T00:05:51.115Z,40.02
2023-05-04T00:06:51.074Z,40.00
2023-05-04T00:07:51.093Z,40.00
2023-05-04T00:08:51.051Z,40.03
2023-05-04T00:09:51.026Z,39.99
2023-05-04T00:10:51.079Z,40.00
2023-05-04T00:11:50.982Z,40.01
2023-05-04T00:12:51.070Z,40.00
2023-05-04T00:13:50.943Z,39.99
2023-05-04T00:14:50.931Z,39.98
2023-05-04T00:15:50.953Z,39.98
2023-05-04T00:16:50.894Z,39.98
2023-05-04T00:17:50.883Z,39.96
2023-05-04T00:18:50.855Z,39.98
2023-05-04T00:19:50.850Z,39.97
2023-05-04T00:20:50.825Z,39.96
2023-05-04T00:21:50.832Z,39.92
2023-05-04T00:22:50.853Z,39.95
2023-05-04T00:23:50.869Z,40.00
2023-05-04T00:24:50.881Z,39.99
2023-05-04T00:25:50.888Z,39.93
2023-05-04T00:26:50.911Z,39.89
2023-05-04T00:27:50.930Z,39.97
2023-05-04T00:28:50.946Z,39.99
2023-05-04T00:29:50.956Z,39.96
2023-05-04T00:30:50.960Z,39.98
2023-05-04T00:31:51.007Z,39.97
2023-05-04T00:32:51.017Z,39.94
2023-05-04T00:33:50.992Z,39.95
2023-05-04T00:34:51.077Z,39.95
2023-05-04T00:35:51.022Z,39.94
2023-05-04T00:36:51.041Z,39.92
2023-05-04T00:37:51.039Z,39.91
2023-05-04T00:38:51.047Z,39.93
2023-05-04T00:39:51.054Z,39.93
2023-05-04T00:40:51.058Z,39.94
2023-05-04T00:41:51.066Z,39.94
2023-05-04T00:42:51.086Z,39.94
2023-05-04T00:43:51.080Z,39.95
2023-05-04T00:44:51.106Z,39.96
2023-05-04T00:45:51.101Z,39.94
2023-05-04T00:46:51.185Z,39.89
2023-05-04T00:47:51.142Z,39.93
2023-05-04T00:48:51.131Z,39.93
2023-05-04T00:49:51.142Z,39.91
2023-05-04T00:50:51.190Z,39.91
2023-05-04T00:51:51.187Z,39.93
2023-05-04T00:52:51.187Z,39.91
2023-05-04T00:53:51.190Z,39.92
2023-05-04T00:54:51.207Z,39.87
2023-05-04T00:55:52.160Z,39.89
2023-05-04T00:56:51.250Z,39.82
2023-05-04T00:57:51.271Z,39.84
2023-05-04T00:58:51.260Z,39.84
2023-05-04T00:59:51.268Z,39.83
2023-05-04T01:00:51.327Z,39.88
2023-05-04T01:01:51.300Z,39.89
2023-05-04T01:02:51.366Z,39.85
2023-05-04T01:03:51.335Z,39.89
2023-05-04T01:04:51.333Z,39.87
2023-05-04T01:05:51.413Z,39.82
2023-05-04T01:06:51.372Z,39.81
2023-05-04T01:07:51.400Z,39.90
2023-05-04T01:08:51.399Z,39.87
2023-05-04T01:09:51.414Z,39.77
2023-05-04T01:10:51.434Z,39.83
2023-05-04T01:11:51.456Z,39.81
2023-05-04T01:12:51.557Z,39.77
2023-05-04T01:13:51.479Z,39.74
2023-05-04T01:14:51.510Z,39.87
2023-05-04T01:15:51.534Z,39.84
2023-05-04T01:16:51.594Z,39.76
2023-05-04T01:17:51.622Z,39.83
2023-05-04T01:18:51.595Z,39.84
2023-05-04T01:19:51.603Z,39.83
2023-05-04T01:20:51.610Z,39.80
2023-05-04T01:21:51.715Z,39.81
2023-05-04T01:22:51.654Z,39.75
2023-05-04T01:23:51.665Z,39.71
2023-05-04T01:24:51.696Z,39.75
2023-05-04T01:25:51.698Z,39.76
2023-05-04T01:26:51.739Z,39.75
2023-05-04T01:27:51.739Z,39.68
2023-05-04T01:28:51.763Z,39.72
2023-05-04T01:29:52.158Z,39.69
2023-05-04T01:30:51.866Z,39.73
2023-05-04T01:31:51.816Z,39.70
2023-05-04T01:32:51.885Z,39.68
2023-05-04T01:33:51.861Z,39.73
2023-05-04T01:34:51.887Z,39.80
2023-05-04T01:35:51.898Z,39.77
2023-05-04T01:36:51.927Z,39.80
2023-05-04T01:37:51.940Z,39.71
2023-05-04T01:38:52.162Z,39.78
2023-05-04T01:39:51.972Z,39.77
2023-05-04T01:40:51.994Z,39.77
2023-05-04T01:41:51.994Z,39.77
2023-05-04T01:42:52.008Z,39.78
2023-05-04T01:43:52.017Z,39.78
2023-05-04T01:44:52.037Z,39.76
2023-05-04T01:45:52.101Z,39.76
2023-05-04T01:46:52.089Z,39.78
2023-05-04T01:47:52.111Z,39.71
2023-05-04T01:48:52.090Z,39.77
2023-05-04T01:49:52.105Z,39.78
2023-05-04T01:50:52.114Z,39.78
2023-05-04T01:51:52.141Z,39.78
2023-05-04T01:52:52.138Z,39.71
2023-05-04T01:53:52.136Z,39.78
2023-05-04T01:54:52.147Z,39.72
2023-05-04T01:55:52.159Z,39.78
2023-05-04T01:56:52.174Z,39.71
2023-05-04T01:57:52.177Z,39.74
2023-05-04T01:58:52.188Z,39.75
2023-05-04T01:59:52.193Z,39.64
2023-05-04T02:00:52.212Z,39.73
2023-05-04T02:01:52.305Z,39.73
2023-05-04T02:02:52.256Z,39.75
2023-05-04T02:03:52.310Z,39.74
2023-05-04T02:04:52.239Z,39.73
2023-05-04T02:05:52.250Z,39.74
2023-05-04T02:06:52.257Z,39.72
2023-05-04T02:07:52.269Z,39.70
2023-05-04T02:08:52.272Z,39.70
2023-05-04T02:09:52.405Z,39.70
2023-05-04T02:10:52.301Z,39.70
2023-05-04T02:11:52.314Z,39.70
2023-05-04T02:12:52.390Z,39.72
2023-05-04T02:13:52.342Z,39.69
2023-05-04T02:14:52.352Z,39.71
2023-05-04T02:15:52.446Z,39.68
2023-05-04T02:16:52.379Z,39.67
2023-05-04T02:17:52.399Z,39.67
2023-05-04T02:18:52.384Z,39.69
2023-05-04T02:19:52.400Z,39.69
2023-05-04T02:20:52.392Z,39.69
2023-05-04T02:21:52.444Z,39.66
2023-05-04T02:22:52.398Z,39.68
2023-05-04T02:23:52.541Z,39.66
2023-05-04T02:24:52.424Z,39.69
2023-05-04T02:25:52.430Z,39.65
2023-05-04T02:26:52.443Z,39.69
2023-05-04T02:27:52.443Z,39.64
2023-05-04T02:28:52.449Z,39.66
2023-05-04T02:29:52.455Z,39.62
2023-05-04T02:30:52.465Z,39.64
2023-05-04T02:31:52.565Z,39.65
2023-05-04T02:32:52.530Z,39.64
2023-05-04T02:33:52.584Z,39.62
2023-05-04T02:34:52.495Z,39.62
2023-05-04T02:35:52.506Z,39.63
2023-05-04T02:36:52.669Z,39.62
2023-05-04T02:37:52.515Z,39.62
2023-05-04T02:38:52.520Z,39.61
2023-05-04T02:39:52.537Z,39.63
2023-05-04T02:40:52.542Z,39.61
2023-05-04T02:41:52.556Z,39.55
2023-05-04T02:42:52.561Z,39.61
2023-05-04T02:43:52.653Z,39.64
2023-05-04T02:44:52.576Z,39.57
2023-05-04T02:45:52.644Z,39.58
2023-05-04T02:46:52.612Z,39.61
2023-05-04T02:47:52.742Z,39.62
2023-05-04T02:48:52.605Z,39.62
2023-05-04T02:49:52.614Z,39.61
2023-05-04T02:50:52.619Z,39.61
2023-05-04T02:51:52.637Z,39.57
2023-05-04T02:52:52.708Z,39.56
2023-05-04T02:53:52.647Z,39.57
2023-05-04T02:54:53.326Z,39.53
2023-05-04T02:55:52.658Z,39.58
2023-05-04T02:56:52.673Z,39.56
2023-05-04T02:57:52.677Z,39.54
2023-05-04T02:58:52.756Z,39.51
2023-05-04T02:59:52.694Z,39.54
2023-05-04T03:00:52.749Z,39.56
2023-05-04T03:01:52.843Z,39.56
2023-05-04T03:02:52.728Z,39.50
2023-05-04T03:03:52.738Z,39.56
2023-05-04T03:04:52.725Z,39.54
2023-05-04T03:05:52.756Z,39.50
2023-05-04T03:06:52.837Z,39.49
2023-05-04T03:07:52.769Z,39.50
2023-05-04T03:08:52.792Z,39.52
2023-05-04T03:09:52.802Z,39.54
2023-05-04T03:10:52.826Z,39.54
2023-05-04T03:11:52.831Z,39.56
2023-05-04T03:12:52.921Z,39.50
2023-05-04T03:13:52.860Z,39.53
2023-05-04T03:14:52.878Z,39.51
2023-05-04T03:15:52.890Z,39.48
2023-05-04T03:16:53.053Z,39.49
2023-05-04T03:17:52.964Z,39.47
2023-05-04T03:18:57.666Z,39.49
2023-05-04T03:19:52.903Z,39.47
2023-05-04T03:20:52.887Z,39.47
2023-05-04T03:21:52.874Z,39.47
2023-05-04T03:22:52.868Z,39.51
2023-05-04T03:23:52.833Z,39.47
2023-05-04T03:24:52.810Z,39.44
2023-05-04T03:25:52.792Z,39.45
2023-05-04T03:26:52.768Z,39.46
2023-05-04T03:27:53.178Z,39.47
2023-05-04T03:28:52.740Z,39.46
2023-05-04T03:29:52.761Z,39.42
2023-05-04T03:30:52.740Z,39.45
2023-05-04T03:31:52.702Z,39.43
2023-05-04T03:32:52.759Z,39.43
2023-05-04T03:33:52.733Z,39.44
2023-05-04T03:34:52.702Z,39.41
2023-05-04T03:35:52.601Z,39.40
2023-05-04T03:36:52.588Z,39.41
2023-05-04T03:37:52.576Z,39.40
2023-05-04T03:38:52.548Z,39.41
2023-05-04T03:39:52.517Z,39.41
2023-05-04T03:40:52.509Z,39.39
2023-05-04T03:41:52.496Z,39.38
2023-05-04T03:42:52.597Z,39.37
2023-05-04T03:43:52.455Z,39.41
2023-05-04T03:44:53.162Z,39.40
2023-05-04T03:45:52.481Z,39.39
2023-05-04T03:46:52.466Z,39.38
2023-05-04T03:47:52.518Z,39.38
2023-05-04T03:48:52.472Z,39.36
2023-05-04T03:49:53.159Z,39.42
2023-05-04T03:50:52.504Z,39.37
2023-05-04T03:51:53.216Z,39.39
2023-05-04T03:52:52.511Z,39.41
2023-05-04T03:53:52.522Z,39.38
2023-05-04T03:54:52.533Z,39.34
2023-05-04T03:55:53.164Z,39.35
2023-05-04T03:56:52.546Z,39.35
2023-05-04T03:57:52.553Z,39.36
2023-05-04T03:58:52.560Z,39.35
2023-05-04T03:59:52.567Z,39.35
2023-05-04T04:00:52.568Z,39.35
2023-05-04T04:01:52.590Z,39.32
2023-05-04T04:02:52.772Z,39.34
2023-05-04T04:03:52.689Z,39.34
2023-05-04T04:04:52.608Z,39.34
2023-05-04T04:05:53.160Z,39.32
2023-05-04T04:06:52.634Z,39.30
2023-05-04T04:07:52.649Z,39.33
2023-05-04T04:08:52.688Z,39.31
2023-05-04T04:09:52.663Z,39.30
2023-05-04T04:10:52.665Z,39.31
2023-05-04T04:11:52.677Z,39.29
2023-05-04T04:12:52.796Z,39.28
2023-05-04T04:13:52.689Z,39.26
2023-05-04T04:14:52.766Z,39.29
2023-05-04T04:15:52.841Z,39.29
2023-05-04T04:16:52.709Z,39.27
2023-05-04T04:17:52.734Z,39.27
2023-05-04T04:18:52.732Z,39.24
2023-05-04T04:19:52.732Z,39.26
2023-05-04T04:20:52.756Z,39.24
2023-05-04T04:21:53.168Z,39.28
2023-05-04T04:22:52.761Z,39.24
2023-05-04T04:23:52.768Z,39.26
2023-05-04T04:24:52.775Z,39.24
2023-05-04T04:25:52.797Z,39.24
2023-05-04T04:26:52.802Z,39.26
2023-05-04T04:27:52.825Z,39.22
2023-05-04T04:28:52.829Z,39.26
2023-05-04T04:29:52.828Z,39.25
2023-05-04T04:30:52.928Z,39.23
2023-05-04T04:31:52.929Z,39.24
2023-05-04T04:32:52.926Z,39.24
2023-05-04T04:33:52.876Z,39.23
2023-05-04T04:34:52.942Z,39.23
2023-05-04T04:35:52.876Z,39.23
2023-05-04T04:36:52.889Z,39.21
2023-05-04T04:37:52.898Z,39.21
2023-05-04T04:38:52.907Z,39.23
2023-05-04T04:39:52.916Z,39.19
2023-05-04T04:40:52.988Z,39.19
2023-05-04T04:41:52.930Z,39.19
2023-05-04T04:42:52.943Z,39.20
2023-05-04T04:43:52.945Z,39.22
2023-05-04T04:44:52.945Z,39.17
2023-05-04T04:45:52.965Z,39.21
2023-05-04T04:46:53.036Z,39.20
2023-05-04T04:47:53.033Z,39.19
2023-05-04T04:48:52.995Z,39.19
2023-05-04T04:49:53.007Z,39.16
2023-05-04T04:50:53.007Z,39.18
2023-05-04T04:51:53.024Z,39.20
2023-05-04T04:52:53.050Z,39.20
2023-05-04T04:53:53.042Z,39.18
2023-05-04T04:54:53.054Z,39.21
2023-05-04T04:55:53.065Z,39.18
2023-05-04T04:56:53.076Z,39.18
2023-05-04T04:57:53.088Z,39.16
2023-05-04T04:58:53.659Z,39.17
2023-05-04T04:59:53.190Z,39.16
2023-05-04T05:00:53.137Z,39.14
2023-05-04T05:01:53.119Z,39.16
2023-05-04T05:02:53.154Z,39.17
2023-05-04T05:03:53.146Z,39.14
2023-05-04T05:04:53.227Z,39.14
2023-05-04T05:05:53.165Z,39.12
2023-05-04T05:06:53.204Z,39.14
2023-05-04T05:07:53.197Z,39.13
2023-05-04T05:08:53.222Z,39.13
2023-05-04T05:09:53.291Z,39.07
2023-05-04T05:10:53.223Z,39.08
2023-05-04T05:11:53.242Z,39.09
2023-05-04T05:12:53.342Z,39.06
2023-05-04T05:13:53.265Z,39.06
2023-05-04T05:14:53.283Z,39.17
2023-05-04T05:15:53.305Z,39.34
2023-05-04T05:16:53.349Z,39.50
2023-05-04T05:17:53.724Z,39.59
2023-05-04T05:18:53.360Z,39.42
2023-05-04T05:19:53.347Z,39.35
2023-05-04T05:20:53.367Z,39.80
2023-05-04T05:21:53.819Z,39.94
2023-05-04T05:22:53.408Z,40.43
2023-05-04T05:23:53.421Z,40.56
2023-05-04T05:24:53.445Z,40.71
2023-05-04T05:25:53.436Z,41.02
2023-05-04T05:26:53.474Z,40.74
2023-05-04T05:27:53.483Z,41.18
2023-05-04T05:28:53.523Z,41.10
2023-05-04T05:29:53.516Z,40.90
2023-05-04T05:30:53.578Z,40.87
2023-05-04T05:31:53.570Z,40.89
2023-05-04T05:32:53.784Z,40.86
2023-05-04T05:33:53.612Z,40.58
2023-05-04T05:34:53.621Z,40.60
2023-05-04T05:35:53.703Z,40.42
2023-05-04T05:36:53.636Z,40.35
2023-05-04T05:37:53.652Z,40.31
2023-05-04T05:38:53.699Z,40.07
2023-05-04T05:39:53.659Z,39.70
2023-05-04T05:40:53.679Z,39.61
2023-05-04T05:41:53.675Z,39.68
2023-05-04T05:42:55.674Z,39.69
2023-05-04T05:43:53.719Z,39.69
2023-05-04T05:44:53.714Z,39.65
2023-05-04T05:45:53.756Z,39.78
2023-05-04T05:46:53.740Z,39.81
2023-05-04T05:47:53.836Z,39.96
2023-05-04T05:48:53.764Z,39.87
2023-05-04T05:49:53.817Z,39.77
2023-05-04T05:50:53.784Z,39.71
2023-05-04T05:51:53.814Z,39.67
2023-05-04T05:52:53.810Z,39.69
2023-05-04T05:53:53.837Z,39.61
2023-05-04T05:54:53.837Z,39.54
2023-05-04T05:55:53.859Z,39.47
2023-05-04T05:56:53.859Z,39.59
2023-05-04T05:57:53.882Z,39.75
2023-05-04T05:58:53.910Z,39.53
2023-05-04T05:59:53.915Z,39.67
2023-05-04T06:00:53.947Z,39.84
2023-05-04T06:01:56.710Z,39.69
2023-05-04T06:02:53.961Z,39.49
2023-05-04T06:03:54.073Z,38.96
2023-05-04T06:04:54.044Z,38.13
2023-05-04T06:05:53.952Z,38.67
2023-05-04T06:06:53.851Z,38.81
2023-05-04T06:07:53.841Z,38.71
2023-05-04T06:08:53.806Z,38.84
2023-05-04T06:09:53.788Z,38.90
2023-05-04T06:10:53.760Z,38.98
2023-05-04T06:11:55.429Z,39.03
2023-05-04T06:12:53.748Z,39.14
2023-05-04T06:13:53.731Z,39.17
2023-05-04T06:14:53.711Z,39.25
2023-05-04T06:15:53.697Z,39.25
2023-05-04T06:16:53.628Z,39.31
2023-05-04T06:17:53.627Z,39.22
2023-05-04T06:18:53.591Z,39.19
2023-05-04T06:19:53.574Z,39.24
2023-05-04T06:20:53.555Z,39.26
2023-05-04T06:21:53.613Z,39.45
2023-05-04T06:22:53.530Z,39.51
2023-05-04T06:23:53.534Z,39.54
2023-05-04T06:24:56.308Z,39.69
2023-05-04T06:25:54.456Z,39.95
2023-05-04T06:26:53.426Z,39.99
2023-05-04T06:27:56.670Z,39.91
2023-05-04T06:28:53.433Z,40.00
2023-05-04T06:29:53.347Z,39.99
2023-05-04T06:30:53.339Z,40.00
2023-05-04T06:31:53.398Z,39.96
2023-05-04T06:32:53.329Z,39.97
2023-05-04T06:33:53.280Z,39.90
2023-05-04T06:34:53.259Z,39.86
2023-05-04T06:35:53.245Z,39.88
2023-05-04T06:36:53.233Z,39.84
2023-05-04T06:37:53.257Z,39.70
2023-05-04T06:38:53.184Z,39.57
2023-05-04T06:39:53.177Z,39.51
2023-05-04T06:40:53.215Z,39.36
2023-05-04T06:41:53.268Z,39.28
2023-05-04T06:42:53.128Z,39.21
2023-05-04T06:43:53.100Z,39.19
2023-05-04T06:44:53.081Z,39.25
2023-05-04T06:45:53.145Z,39.24
2023-05-04T06:46:53.038Z,39.19
2023-05-04T06:47:53.246Z,39.10
2023-05-04T06:48:53.050Z,39.08
2023-05-04T06:49:52.974Z,39.07
2023-05-04T06:50:52.959Z,39.10
2023-05-04T06:51:52.930Z,39.08
2023-05-04T06:52:52.931Z,39.11
2023-05-04T06:53:52.886Z,39.17
2023-05-04T06:54:52.875Z,39.16
2023-05-04T06:55:52.851Z,39.21
2023-05-04T06:56:52.834Z,39.22
2023-05-04T06:57:52.824Z,39.20
2023-05-04T06:58:52.801Z,39.20
2023-05-04T06:59:52.784Z,39.20
2023-05-04T07:00:52.892Z,39.22
2023-05-04T07:01:52.745Z,39.22
2023-05-04T07:02:52.775Z,39.23
2023-05-04T07:03:52.776Z,39.25
2023-05-04T07:04:52.701Z,39.27
2023-05-04T07:05:52.729Z,39.29
2023-05-04T07:06:52.664Z,39.30
2023-05-04T07:07:52.645Z,39.31
2023-05-04T07:08:52.648Z,39.32
2023-05-04T07:09:52.604Z,39.32
2023-05-04T07:10:52.656Z,39.31
2023-05-04T07:11:52.570Z,39.34
2023-05-04T07:12:52.614Z,39.32
2023-05-04T07:13:52.591Z,39.36
2023-05-04T07:14:52.503Z,39.39
2023-05-04T07:15:52.502Z,39.43
2023-05-04T07:16:52.460Z,39.84
2023-05-04T07:17:52.553Z,39.99
2023-05-04T07:18:52.436Z,40.41
2023-05-04T07:19:52.443Z,40.42
2023-05-04T07:20:56.167Z,39.89
2023-05-04T07:21:53.629Z,39.80
2023-05-04T07:22:54.089Z,39.90
2023-05-04T07:23:54.092Z,40.20
2023-05-04T07:24:53.106Z,40.31
2023-05-04T07:25:53.734Z,40.37
2023-05-04T07:26:52.617Z,40.32
2023-05-04T07:27:52.577Z,40.19
2023-05-04T07:28:52.670Z,40.01
2023-05-04T07:29:52.678Z,39.92
2023-05-04T07:30:52.615Z,39.90
2023-05-04T07:31:53.637Z,39.85
2023-05-04T07:32:52.833Z,39.73
2023-05-04T07:33:52.657Z,39.74
2023-05-04T07:34:52.687Z,39.74
2023-05-04T07:35:52.719Z,39.70
2023-05-04T07:36:52.741Z,39.71
2023-05-04T07:37:52.791Z,39.74
2023-05-04T07:38:52.882Z,39.69
2023-05-04T07:39:52.835Z,39.67
2023-05-04T07:40:52.890Z,39.69
2023-05-04T07:41:52.905Z,39.69
2023-05-04T07:42:52.932Z,39.70
2023-05-04T07:43:53.112Z,39.68
2023-05-04T07:44:52.983Z,39.67
2023-05-04T07:45:53.034Z,39.70
2023-05-04T07:46:53.033Z,39.71
2023-05-04T07:47:53.291Z,39.71
2023-05-04T07:48:53.090Z,39.72
2023-05-04T07:49:53.123Z,39.72
2023-05-04T07:50:53.216Z,39.70
2023-05-04T07:51:53.180Z,39.74
2023-05-04T07:52:53.276Z,39.71
2023-05-04T07:53:53.232Z,39.73
2023-05-04T07:54:53.303Z,39.71
2023-05-04T07:55:53.288Z,39.69
2023-05-04T07:56:53.373Z,39.68
2023-05-04T07:57:53.360Z,39.71
2023-05-04T07:58:53.384Z,39.68
2023-05-04T07:59:53.423Z,39.69
2023-05-04T08:00:53.448Z,39.71
2023-05-04T08:01:53.513Z,39.68
2023-05-04T08:02:53.537Z,39.70
2023-05-04T08:03:53.537Z,39.69
2023-05-04T08:04:53.567Z,39.67
2023-05-04T08:05:53.597Z,39.70
2023-05-04T08:06:53.638Z,39.68
2023-05-04T08:07:53.668Z,39.68
2023-05-04T08:08:54.187Z,39.68
2023-05-04T08:09:53.730Z,39.67
2023-05-04T08:10:54.987Z,40.00
2023-05-04T08:11:53.836Z,39.77
2023-05-04T08:12:53.924Z,40.13
2023-05-04T08:13:53.945Z,40.15
2023-05-04T08:14:54.002Z,39.68
2023-05-04T08:15:54.077Z,39.39
2023-05-04T08:16:54.080Z,39.48
2023-05-04T08:17:54.134Z,39.15
2023-05-04T08:18:54.202Z,38.26
2023-05-04T08:19:54.124Z,36.00
2023-05-04T08:20:54.118Z,36.46
2023-05-04T08:21:54.683Z,36.03
2023-05-04T08:22:54.127Z,37.18
2023-05-04T08:23:54.131Z,38.38
2023-05-04T08:24:54.098Z,39.11
2023-05-04T08:25:54.112Z,38.29
2023-05-04T08:27:06.657Z,38.84
2023-05-04T08:27:55.081Z,39.56
2023-05-04T08:28:54.141Z,39.41
2023-05-04T08:29:54.458Z,39.38
2023-05-04T08:30:53.995Z,39.40
2023-05-04T08:31:54.022Z,40.14
2023-05-04T08:32:54.027Z,40.43
2023-05-04T08:33:53.937Z,39.83
2023-05-04T08:34:53.915Z,40.08
2023-05-04T08:35:54.164Z,40.74
2023-05-04T08:36:53.895Z,40.80
2023-05-04T08:37:53.868Z,40.78
2023-05-04T08:38:53.843Z,40.74
2023-05-04T08:39:53.984Z,40.53
2023-05-04T08:40:53.795Z,40.32
2023-05-04T08:41:53.795Z,40.28
2023-05-04T08:42:53.766Z,40.18
2023-05-04T08:43:53.766Z,39.96
2023-05-04T08:44:53.717Z,39.79
2023-05-04T08:45:53.739Z,39.93
2023-05-04T08:46:53.932Z,39.61
2023-05-04T08:47:53.725Z,39.84
2023-05-04T08:48:53.752Z,39.64
2023-05-04T08:49:53.626Z,39.57
2023-05-04T08:50:53.619Z,39.59
2023-05-04T08:51:53.600Z,39.76
2023-05-04T08:52:53.585Z,39.55
2023-05-04T08:53:53.563Z,39.41
2023-05-04T08:54:53.701Z,39.11
2023-05-04T08:55:53.539Z,38.99
2023-05-04T08:56:53.566Z,39.00
2023-05-04T08:57:53.588Z,38.86
2023-05-04T08:58:53.594Z,38.86
2023-05-04T08:59:54.177Z,38.83
2023-05-04T09:00:53.736Z,38.74
2023-05-04T09:01:53.662Z,38.71
2023-05-04T09:02:53.777Z,38.67
2023-05-04T09:03:53.658Z,38.65
2023-05-04T09:04:53.541Z,38.63
2023-05-04T09:05:53.521Z,38.63
2023-05-04T09:06:53.599Z,38.61
2023-05-04T09:07:53.537Z,38.58
2023-05-04T09:08:53.439Z,38.54
2023-05-04T09:09:54.113Z,38.58
2023-05-04T09:10:53.405Z,38.56
2023-05-04T09:11:53.366Z,38.55
2023-05-04T09:12:53.462Z,38.56
2023-05-04T09:13:53.432Z,38.54
2023-05-04T09:14:54.178Z,38.57
2023-05-04T09:15:54.338Z,38.81
2023-05-04T09:16:53.297Z,38.93
2023-05-04T09:17:57.902Z,39.20
2023-05-04T09:18:54.222Z,39.35
2023-05-04T09:19:53.196Z,39.43
2023-05-04T09:20:54.096Z,39.57
2023-05-04T09:21:53.217Z,39.68
2023-05-04T09:22:53.151Z,39.68
2023-05-04T09:23:53.164Z,39.67
2023-05-04T09:24:53.107Z,39.83
2023-05-04T09:25:53.086Z,40.01
2023-05-04T09:26:53.114Z,39.88
2023-05-04T09:27:53.041Z,39.78
2023-05-04T09:28:53.022Z,39.80
2023-05-04T09:29:52.999Z,39.74
2023-05-04T09:30:53.003Z,39.63
2023-05-04T09:31:52.942Z,39.55
2023-05-04T09:32:52.986Z,39.48
2023-05-04T09:33:53.743Z,39.41
2023-05-04T09:34:52.925Z,39.29
2023-05-04T09:35:52.897Z,39.25
2023-05-04T09:36:52.860Z,39.19
2023-05-04T09:37:52.828Z,39.13
2023-05-04T09:38:52.865Z,39.10
2023-05-04T09:39:52.792Z,39.00
2023-05-04T09:40:52.774Z,39.12
2023-05-04T09:41:52.900Z,39.05
2023-05-04T09:42:52.752Z,39.02
2023-05-04T09:43:52.764Z,38.98
2023-05-04T09:44:52.776Z,38.96
2023-05-04T09:45:52.792Z,38.98
2023-05-04T09:46:52.884Z,38.98
2023-05-04T09:47:52.873Z,39.02
2023-05-04T09:48:52.813Z,38.97
2023-05-04T09:49:52.811Z,38.95
2023-05-04T09:50:52.828Z,38.93
2023-05-04T09:51:52.901Z,38.93
2023-05-04T09:52:52.856Z,38.92
2023-05-04T09:53:52.789Z,38.93
2023-05-04T09:54:52.722Z,38.92
2023-05-04T09:55:52.703Z,38.92
2023-05-04T09:56:52.681Z,38.90
2023-05-04T09:57:52.667Z,38.87
2023-05-04T09:58:52.656Z,38.89
2023-05-04T09:59:52.624Z,38.84
2023-05-04T10:00:53.602Z,38.84
2023-05-04T10:01:52.641Z,38.82
2023-05-04T10:02:52.662Z,38.85
2023-05-04T10:03:52.576Z,38.84
2023-05-04T10:04:52.567Z,38.81
2023-05-04T10:05:52.615Z,38.84
2023-05-04T10:06:52.487Z,38.85
2023-05-04T10:07:52.472Z,38.91
2023-05-04T10:08:52.454Z,38.89
2023-05-04T10:09:53.141Z,38.89
2023-05-04T10:10:52.411Z,39.04
2023-05-04T10:11:52.399Z,39.35
2023-05-04T10:12:52.412Z,39.38
2023-05-04T10:13:52.359Z,39.33
2023-05-04T10:14:53.182Z,39.29
2023-05-04T10:15:52.444Z,39.26
2023-05-04T10:16:52.464Z,39.12
2023-05-04T10:17:52.496Z,39.04
2023-05-04T10:18:52.609Z,39.00
2023-05-04T10:19:52.495Z,38.95
2023-05-04T10:20:52.496Z,39.08
2023-05-04T10:21:52.563Z,39.07
2023-05-04T10:22:52.497Z,39.03
2023-05-04T10:23:53.854Z,39.04
2023-05-04T10:24:52.903Z,39.14
2023-05-04T10:25:52.494Z,39.33
2023-05-04T10:26:52.492Z,39.15
2023-05-04T10:27:52.653Z,39.07
2023-05-04T10:28:52.485Z,39.03
2023-05-04T10:29:52.485Z,39.06
2023-05-04T10:30:52.508Z,39.05
2023-05-04T10:31:52.557Z,39.04
2023-05-04T10:32:52.497Z,39.06
2023-05-04T10:33:52.628Z,39.05
2023-05-04T10:34:52.485Z,39.10
2023-05-04T10:35:52.501Z,39.15
2023-05-04T10:36:52.571Z,39.09
2023-05-04T10:37:52.465Z,39.13
2023-05-04T10:38:52.475Z,39.16
2023-05-04T10:39:52.484Z,39.20
2023-05-04T10:40:52.468Z,39.17
2023-05-04T10:41:52.483Z,39.33
2023-05-04T10:42:52.508Z,39.33
2023-05-04T10:43:52.474Z,39.24
2023-05-04T10:44:52.472Z,39.26
2023-05-04T10:45:52.569Z,39.25
2023-05-04T10:46:52.552Z,39.29
2023-05-04T10:47:52.538Z,39.31
2023-05-04T10:48:52.548Z,39.30
2023-05-04T10:49:52.510Z,39.28
2023-05-04T10:50:52.526Z,39.39
2023-05-04T10:51:52.533Z,39.39
2023-05-04T10:52:52.691Z,39.41
2023-05-04T10:53:52.530Z,39.39
2023-05-04T10:54:52.549Z,39.40
2023-05-04T10:55:52.514Z,39.46
2023-05-04T10:56:52.527Z,39.46
2023-05-04T10:57:52.492Z,39.41
2023-05-04T10:58:52.487Z,39.36
2023-05-04T10:59:52.477Z,39.34
2023-05-04T11:00:52.505Z,39.35
2023-05-04T11:01:52.460Z,39.34
2023-05-04T11:02:52.586Z,39.41
2023-05-04T11:03:52.558Z,39.37
2023-05-04T11:04:52.450Z,39.36
2023-05-04T11:05:52.439Z,39.33
2023-05-04T11:06:52.476Z,39.51
2023-05-04T11:07:52.417Z,39.67
2023-05-04T11:08:52.410Z,39.52
2023-05-04T11:09:52.401Z,39.37
2023-05-04T11:10:52.397Z,39.40
2023-05-04T11:11:52.386Z,39.37
2023-05-04T11:12:52.470Z,39.44
2023-05-04T11:13:52.372Z,39.53
2023-05-04T11:14:52.515Z,39.41
2023-05-04T11:15:52.333Z,39.37
2023-05-04T11:16:52.459Z,39.35
2023-05-04T11:17:53.203Z,39.48
2023-05-04T11:18:52.355Z,39.54
2023-05-04T11:19:52.327Z,39.49
2023-05-04T11:20:52.290Z,39.53
2023-05-04T11:21:53.194Z,39.27
2023-05-04T11:22:52.270Z,38.97
2023-05-04T11:23:52.249Z,38.86
2023-05-04T11:24:53.656Z,39.42
2023-05-04T11:25:53.195Z,39.51
2023-05-04T11:26:52.217Z,38.52
2023-05-04T11:27:52.199Z,38.30
2023-05-04T11:28:52.190Z,38.38
2023-05-04T11:29:52.174Z,38.09
2023-05-04T11:30:53.290Z,38.62
2023-05-04T11:31:52.220Z,39.45
2023-05-04T11:32:52.139Z,39.65
2023-05-04T11:33:52.104Z,39.76
2023-05-04T11:34:52.085Z,39.63
2023-05-04T11:35:52.052Z,38.85
2023-05-04T11:36:52.095Z,39.17
2023-05-04T11:37:52.016Z,39.72
2023-05-04T11:38:52.006Z,39.90
2023-05-04T11:39:51.983Z,39.89
2023-05-04T11:40:51.960Z,39.96
2023-05-04T11:41:51.937Z,39.99
2023-05-04T11:42:52.909Z,40.02
2023-05-04T11:43:51.982Z,39.91
2023-05-04T11:44:52.041Z,39.91
2023-05-04T11:45:51.880Z,39.86
2023-05-04T11:46:51.943Z,39.87
2023-05-04T11:47:51.861Z,39.70
2023-05-04T11:48:51.821Z,39.66
2023-05-04T11:49:51.805Z,39.88
2023-05-04T11:50:51.761Z,40.03
2023-05-04T11:51:51.739Z,40.09
2023-05-04T11:52:51.716Z,40.62
2023-05-04T11:53:51.701Z,40.69
2023-05-04T11:54:51.991Z,40.87
2023-05-04T11:55:51.649Z,40.74
2023-05-04T11:56:51.623Z,40.75
2023-05-04T11:57:51.641Z,41.38
2023-05-04T11:58:51.633Z,40.80
2023-05-04T11:59:51.610Z,40.66
2023-05-04T12:00:51.570Z,40.60
2023-05-04T12:01:51.545Z,40.74
2023-05-04T12:02:51.573Z,40.72
2023-05-04T12:03:54.190Z,40.61
2023-05-04T12:04:51.553Z,40.71
2023-05-04T12:05:51.542Z,40.62
2023-05-04T12:06:51.451Z,40.67
2023-05-04T12:07:51.458Z,40.62
2023-05-04T12:08:51.491Z,40.54
2023-05-04T12:09:51.410Z,40.54
2023-05-04T12:10:51.404Z,40.50
2023-05-04T12:11:51.416Z,40.48
2023-05-04T12:12:51.395Z,40.49
2023-05-04T12:13:51.336Z,40.53
2023-05-04T12:14:51.322Z,40.56
2023-05-04T12:15:51.309Z,40.61
2023-05-04T12:16:51.415Z,40.67
2023-05-04T12:17:51.358Z,40.63
2023-05-04T12:18:51.265Z,40.55
2023-05-04T12:19:51.274Z,40.46
2023-05-04T12:20:51.444Z,40.51
2023-05-04T12:21:51.217Z,40.53
2023-05-04T12:22:51.208Z,40.51
2023-05-04T12:23:51.206Z,40.57
2023-05-04T12:24:51.165Z,40.53
2023-05-04T12:25:58.234Z,40.53
2023-05-04T12:26:52.142Z,40.61
2023-05-04T12:27:51.104Z,40.61
2023-05-04T12:28:51.120Z,40.67
2023-05-04T12:29:51.071Z,40.63
2023-05-04T12:30:51.047Z,40.58
2023-05-04T12:31:51.129Z,40.53
2023-05-04T12:32:51.076Z,40.52
2023-05-04T12:33:50.983Z,40.52
2023-05-04T12:34:50.967Z,40.53
2023-05-04T12:35:50.953Z,40.51
2023-05-04T12:36:50.971Z,40.51
2023-05-04T12:37:50.946Z,40.44
2023-05-04T12:38:50.913Z,40.41
2023-05-04T12:39:50.854Z,40.43
2023-05-04T12:40:50.871Z,40.30
2023-05-04T12:41:50.867Z,40.12
2023-05-04T12:42:50.783Z,40.04
2023-05-04T12:43:50.868Z,40.19
2023-05-04T12:44:50.751Z,40.21
2023-05-04T12:45:50.738Z,40.21
2023-05-04T12:46:50.691Z,40.17
2023-05-04T12:47:50.751Z,40.20
2023-05-04T12:48:50.736Z,40.25
2023-05-04T12:49:50.632Z,40.21
2023-05-04T12:50:50.601Z,40.30
2023-05-04T12:51:50.750Z,40.25
2023-05-04T12:52:50.557Z,40.29